Weather at Washington Dulles International Airport

Public forecast

Using degrees Fahrenheit for public forecast. Weather courtesy of forecast.io.

Current aviation weather report (METAR) for Washington Dulles International Airport

Retrieved 2021/01/21 15:52 UTC (50 minutes ago):

KIAD 211552Z 20005KT 10SM SCT250 04/M06 A2981 RMK AO2 SLP096 T00441056

Aviation forecast (TAF) for Washington Dulles International Airport

Retrieved 2021/01/21 12:22 UTC (4 hours ago):

TAF KIAD 211120Z 2112/2218 20004KT P6SM OVC090 FM211400 22008KT P6SM SCT250 FM211600 23010G18KT P6SM SCT250 FM212200 26007KT P6SM FEW250 FM221700 29011G22KT P6SM SCT100